createdAt,value
2017-11-04T00:00:26.342Z,89.20
2017-11-04T00:02:53.920Z,89.00
2017-11-04T00:05:21.459Z,89.10
2017-11-04T00:07:49.044Z,89.00
2017-11-04T00:10:16.586Z,89.10
2017-11-04T00:12:46.815Z,89.20
2017-11-04T00:15:14.413Z,89.30
2017-11-04T00:17:42.713Z,89.00
2017-11-04T00:20:10.298Z,89.00
2017-11-04T00:22:37.874Z,89.00
2017-11-04T00:25:05.415Z,89.00
2017-11-04T00:27:33.019Z,89.20
2017-11-04T00:30:00.561Z,89.20
2017-11-04T00:32:28.105Z,88.70
2017-11-04T00:34:55.691Z,89.10
2017-11-04T00:37:23.233Z,89.20
2017-11-04T00:39:50.817Z,89.10
2017-11-04T00:42:18.356Z,89.30
2017-11-04T00:44:45.942Z,89.20
2017-11-04T00:47:13.709Z,89.30
2017-11-04T00:49:41.746Z,89.50
2017-11-04T00:52:09.283Z,89.40
2017-11-04T00:54:37.638Z,89.50
2017-11-04T00:57:05.946Z,89.60
2017-11-04T00:59:34.745Z,89.80
2017-11-04T01:02:02.289Z,89.80
2017-11-04T01:04:29.834Z,89.80
2017-11-04T01:06:58.658Z,89.90
2017-11-04T01:09:26.198Z,89.90
2017-11-04T01:11:53.746Z,89.90
2017-11-04T01:14:21.325Z,89.90
2017-11-04T01:16:48.861Z,89.80
2017-11-04T01:19:17.086Z,89.80
2017-11-04T01:21:44.619Z,90.00
2017-11-04T01:24:12.166Z,90.00
2017-11-04T01:26:39.774Z,90.00
2017-11-04T01:29:07.312Z,90.10
2017-11-04T01:31:34.855Z,90.10
2017-11-04T01:34:02.452Z,90.10
2017-11-04T01:36:30.052Z,90.10
2017-11-04T01:38:57.603Z,90.10
2017-11-04T01:41:25.942Z,90.10
2017-11-04T01:43:53.521Z,90.10
2017-11-04T01:46:21.062Z,90.10
2017-11-04T01:48:48.640Z,90.10
2017-11-04T01:51:16.191Z,90.10
2017-11-04T01:53:43.569Z,90.10
2017-11-04T01:56:11.876Z,90.10
2017-11-04T01:58:39.531Z,90.10
2017-11-04T02:01:07.078Z,90.10
2017-11-04T02:03:35.426Z,90.10
2017-11-04T02:06:02.971Z,90.10
2017-11-04T02:08:30.666Z,90.10
2017-11-04T02:10:58.978Z,90.20
2017-11-04T02:13:26.518Z,90.20
2017-11-04T02:15:54.861Z,90.20
2017-11-04T02:18:22.456Z,90.20
2017-11-04T02:20:50.015Z,90.20
2017-11-04T02:23:18.337Z,90.30
2017-11-04T02:25:45.926Z,90.30
2017-11-04T02:28:13.471Z,90.20
2017-11-04T02:30:41.170Z,90.20
2017-11-04T02:33:09.481Z,90.20
2017-11-04T02:35:37.029Z,90.20
2017-11-04T02:38:04.608Z,90.30
2017-11-04T02:40:32.226Z,90.20
2017-11-04T02:43:00.529Z,90.20
2017-11-04T02:45:28.069Z,90.20
2017-11-04T02:47:55.994Z,90.20
2017-11-04T02:50:23.598Z,90.20
2017-11-04T02:52:51.906Z,90.30
2017-11-04T02:55:19.626Z,90.20
2017-11-04T02:57:48.038Z,90.60
2017-11-04T03:00:15.583Z,90.30
2017-11-04T03:02:44.217Z,90.30
2017-11-04T03:05:11.754Z,90.30
2017-11-04T03:07:39.334Z,90.30
2017-11-04T03:10:06.914Z,90.40
2017-11-04T03:12:34.460Z,90.40
2017-11-04T03:15:02.069Z,90.40
2017-11-04T03:17:30.374Z,90.50
2017-11-04T03:19:58.681Z,90.50
2017-11-04T03:22:26.261Z,90.50
2017-11-04T03:24:53.805Z,90.40
2017-11-04T03:27:21.384Z,90.40
2017-11-04T03:29:48.926Z,90.40
2017-11-04T03:32:16.654Z,90.40
2017-11-04T03:34:44.205Z,90.30
2017-11-04T03:37:15.657Z,90.30
2017-11-04T03:39:43.197Z,90.30
2017-11-04T03:42:10.742Z,90.40
2017-11-04T03:44:39.157Z,90.40
2017-11-04T03:47:07.010Z,90.30
2017-11-04T03:49:34.597Z,90.40
2017-11-04T03:52:02.238Z,90.30
2017-11-04T03:54:29.782Z,90.40
2017-11-04T03:56:58.094Z,90.50
2017-11-04T03:59:25.794Z,90.50
2017-11-04T04:01:53.343Z,90.50
2017-11-04T04:04:20.919Z,90.50
2017-11-04T04:06:48.461Z,90.50
2017-11-04T04:09:16.070Z,90.50
2017-11-04T04:11:43.639Z,90.50
2017-11-04T04:14:11.220Z,90.50
2017-11-04T04:16:38.757Z,90.60
2017-11-04T04:19:10.298Z,90.60
2017-11-04T04:21:38.602Z,90.70
2017-11-04T04:24:06.141Z,90.70
2017-11-04T04:26:33.741Z,90.80
2017-11-04T04:29:01.274Z,90.80
2017-11-04T04:31:28.814Z,90.90
2017-11-04T04:33:57.261Z,90.90
2017-11-04T04:36:24.806Z,90.90
2017-11-04T04:38:52.340Z,90.90
2017-11-04T04:41:19.963Z,90.80
2017-11-04T04:43:48.314Z,90.80
2017-11-04T04:46:15.852Z,90.80
2017-11-04T04:48:43.701Z,90.90
2017-11-04T04:51:11.238Z,90.90
2017-11-04T04:53:39.542Z,90.90
2017-11-04T04:56:07.258Z,90.90
2017-11-04T04:58:34.801Z,90.90
2017-11-04T05:01:02.350Z,91.00
2017-11-04T05:03:29.973Z,91.00
2017-11-04T05:05:57.513Z,91.10
2017-11-04T05:08:25.821Z,91.20
2017-11-04T05:10:54.169Z,91.50
2017-11-04T05:13:22.548Z,91.30
2017-11-04T05:15:50.863Z,91.40
2017-11-04T05:18:18.442Z,91.30
2017-11-04T05:20:46.025Z,91.40
2017-11-04T05:23:17.441Z,91.50
2017-11-04T05:25:45.750Z,91.50
2017-11-04T05:28:13.349Z,91.50
2017-11-04T05:30:41.066Z,91.60
2017-11-04T05:33:08.621Z,91.60
2017-11-04T05:35:36.201Z,91.60
2017-11-04T05:38:03.744Z,91.70
2017-11-04T05:40:31.444Z,91.70
2017-11-04T05:42:59.754Z,91.80
2017-11-04T05:45:31.461Z,91.80
2017-11-04T05:47:59.905Z,91.70
2017-11-04T05:50:27.450Z,91.80
2017-11-04T05:52:55.798Z,91.80
2017-11-04T05:55:24.155Z,91.90
2017-11-04T05:57:52.021Z,91.80
2017-11-04T06:00:19.563Z,92.10
2017-11-04T06:02:47.093Z,91.90
2017-11-04T06:05:14.811Z,92.00
2017-11-04T06:07:42.353Z,92.00
2017-11-04T06:10:09.890Z,92.00
2017-11-04T06:12:37.757Z,92.10
2017-11-04T06:15:05.297Z,92.10
2017-11-04T06:17:32.885Z,92.10
2017-11-04T06:20:00.430Z,92.10
2017-11-04T06:22:27.978Z,92.20
2017-11-04T06:24:55.557Z,92.20
2017-11-04T06:27:23.098Z,92.20
2017-11-04T06:29:50.998Z,92.30
2017-11-04T06:32:18.529Z,92.30
2017-11-04T06:34:46.114Z,92.30
2017-11-04T06:37:13.658Z,92.30
2017-11-04T06:39:41.237Z,92.30
2017-11-04T06:42:08.778Z,92.30
2017-11-04T06:44:36.434Z,92.40
2017-11-04T06:47:04.279Z,92.40
2017-11-04T06:49:31.823Z,92.40
2017-11-04T06:52:00.173Z,92.50
2017-11-04T06:54:27.709Z,92.50
2017-11-04T06:56:55.285Z,92.50
2017-11-04T06:59:22.998Z,92.50
2017-11-04T07:01:51.350Z,92.60
2017-11-04T07:04:18.900Z,92.60
2017-11-04T07:06:46.591Z,92.60
2017-11-04T07:09:14.903Z,92.60
2017-11-04T07:11:42.448Z,92.60
2017-11-04T07:14:10.033Z,92.70
2017-11-04T07:16:37.574Z,92.70
2017-11-04T07:19:05.220Z,92.70
2017-11-04T07:21:32.766Z,92.70
2017-11-04T07:24:01.085Z,92.70
2017-11-04T07:26:28.699Z,92.70
2017-11-04T07:28:56.270Z,92.70
2017-11-04T07:31:24.584Z,92.70
2017-11-04T07:33:52.181Z,92.70
2017-11-04T07:36:19.723Z,92.70
2017-11-04T07:38:47.359Z,92.70
2017-11-04T07:41:14.923Z,92.70
2017-11-04T07:43:42.669Z,92.70
2017-11-04T07:46:10.631Z,92.80
2017-11-04T07:48:38.179Z,92.80
2017-11-04T07:51:06.581Z,92.80
2017-11-04T07:53:34.122Z,92.80
2017-11-04T07:56:04.785Z,92.80
2017-11-04T07:58:37.280Z,92.80
2017-11-04T08:01:08.641Z,92.80
2017-11-04T08:03:39.905Z,92.80
2017-11-04T08:06:10.770Z,92.80
2017-11-04T08:08:42.652Z,92.80
2017-11-04T08:11:15.032Z,92.70
2017-11-04T08:13:46.381Z,92.70
2017-11-04T08:16:17.582Z,92.70
2017-11-04T08:18:49.812Z,92.60
2017-11-04T08:21:21.552Z,92.60
2017-11-04T08:23:53.012Z,92.60
2017-11-04T08:26:24.557Z,92.70
2017-11-04T08:28:55.972Z,92.70
2017-11-04T08:31:28.201Z,92.80
2017-11-04T08:33:59.984Z,92.70
2017-11-04T08:36:30.022Z,92.80
2017-11-04T08:39:02.172Z,92.70
2017-11-04T08:41:33.512Z,92.70
2017-11-04T08:44:04.743Z,93.00
2017-11-04T08:46:38.633Z,92.60
2017-11-04T08:49:10.443Z,92.60
2017-11-04T08:51:42.894Z,92.60
2017-11-04T08:54:14.244Z,92.60
2017-11-04T08:56:46.584Z,92.50
2017-11-04T08:59:17.993Z,92.60
2017-11-04T09:01:49.536Z,92.60
2017-11-04T09:04:21.354Z,92.60
2017-11-04T09:06:52.492Z,92.60
2017-11-04T09:09:23.644Z,92.60
2017-11-04T09:11:51.183Z,92.60
2017-11-04T09:14:18.730Z,92.60
2017-11-04T09:16:46.745Z,92.50
2017-11-04T09:19:14.278Z,92.40
2017-11-04T09:21:41.829Z,92.40
2017-11-04T09:24:09.411Z,92.40
2017-11-04T09:26:36.950Z,92.30
2017-11-04T09:29:04.651Z,92.30
2017-11-04T09:31:32.257Z,92.20
2017-11-04T09:34:00.786Z,92.10
2017-11-04T09:36:28.330Z,92.10
2017-11-04T09:38:56.101Z,92.00
2017-11-04T09:41:23.638Z,92.00
2017-11-04T09:43:51.223Z,91.90
2017-11-04T09:46:18.778Z,91.90
2017-11-04T09:48:48.831Z,91.90
2017-11-04T09:51:16.382Z,91.80
2017-11-04T09:53:43.957Z,91.30
2017-11-04T09:56:11.590Z,91.20
2017-11-04T09:58:39.322Z,91.00
2017-11-04T10:01:06.882Z,90.90
2017-11-04T10:03:34.496Z,90.80
2017-11-04T10:06:02.042Z,90.80
2017-11-04T10:08:29.615Z,90.70
2017-11-04T10:10:59.816Z,90.70
2017-11-04T10:13:27.365Z,90.70
2017-11-04T10:15:54.920Z,90.70
2017-11-04T10:18:22.909Z,90.70
2017-11-04T10:20:50.463Z,90.80
2017-11-04T10:23:18.025Z,90.70
2017-11-04T10:25:45.654Z,90.70
2017-11-04T10:28:13.206Z,90.60
2017-11-04T10:30:40.762Z,90.70
2017-11-04T10:33:08.562Z,90.70
2017-11-04T10:35:36.121Z,90.70
2017-11-04T10:38:03.703Z,90.50
2017-11-04T10:40:31.269Z,90.40
2017-11-04T10:42:59.234Z,90.30
2017-11-04T10:45:26.868Z,90.50
2017-11-04T10:47:55.196Z,90.10
2017-11-04T10:50:22.781Z,90.10
2017-11-04T10:52:50.544Z,90.00
2017-11-04T10:55:18.880Z,90.10
2017-11-04T10:57:46.421Z,90.10
2017-11-04T11:00:14.006Z,90.20
2017-11-04T11:02:41.591Z,90.00
2017-11-04T11:05:09.957Z,89.60
2017-11-04T11:07:38.314Z,89.60
2017-11-04T11:10:05.863Z,89.50
2017-11-04T11:12:33.459Z,89.40
2017-11-04T11:15:01.773Z,89.20
2017-11-04T11:17:29.449Z,89.10
2017-11-04T11:19:57.006Z,89.10
2017-11-04T11:22:24.541Z,89.00
2017-11-04T11:24:52.121Z,89.00
2017-11-04T11:27:19.661Z,89.10
2017-11-04T11:29:48.069Z,88.80
2017-11-04T11:32:15.613Z,88.80
2017-11-04T11:34:43.269Z,88.50
2017-11-04T11:37:10.811Z,88.40
2017-11-04T11:39:38.410Z,88.10
2017-11-04T11:42:05.949Z,87.90
2017-11-04T11:44:33.573Z,87.80
2017-11-04T11:47:01.373Z,87.60
2017-11-04T11:49:28.927Z,87.40
2017-11-04T11:51:57.870Z,87.30
2017-11-04T11:54:25.410Z,87.30
2017-11-04T11:56:52.954Z,87.00
2017-11-04T11:59:20.551Z,86.70
2017-11-04T12:01:48.171Z,86.50
2017-11-04T12:04:15.723Z,86.40
2017-11-04T12:06:43.282Z,86.40
2017-11-04T12:09:11.647Z,86.20
2017-11-04T12:11:40.001Z,86.00
2017-11-04T12:14:07.579Z,86.00
2017-11-04T12:16:35.941Z,85.70
2017-11-04T12:19:03.486Z,85.70
2017-11-04T12:21:31.132Z,85.60
2017-11-04T12:23:58.744Z,85.50
2017-11-04T12:26:27.067Z,85.40
2017-11-04T12:28:54.809Z,85.40
2017-11-04T12:31:22.439Z,85.40
2017-11-04T12:33:50.013Z,85.50
2017-11-04T12:36:22.551Z,85.70
2017-11-04T12:38:50.211Z,85.60
2017-11-04T12:41:17.755Z,85.50
2017-11-04T12:43:45.442Z,85.30
2017-11-04T12:46:13.082Z,85.00
2017-11-04T12:48:40.665Z,85.00
2017-11-04T12:51:08.243Z,84.90
2017-11-04T12:53:37.805Z,84.60
2017-11-04T12:56:05.555Z,84.60
2017-11-04T12:58:34.381Z,84.50
2017-11-04T13:01:01.955Z,84.40
2017-11-04T13:03:29.513Z,84.30
2017-11-04T13:05:57.094Z,84.20
2017-11-04T13:08:26.399Z,83.70
2017-11-04T13:10:54.709Z,83.50
2017-11-04T13:13:22.248Z,83.50
2017-11-04T13:15:50.255Z,83.50
2017-11-04T13:18:17.801Z,83.80
2017-11-04T13:20:45.356Z,83.90
2017-11-04T13:23:12.966Z,84.00
2017-11-04T13:25:40.510Z,83.80
2017-11-04T13:28:08.050Z,83.80
2017-11-04T13:30:35.785Z,83.80
2017-11-04T13:33:03.325Z,83.50
2017-11-04T13:35:31.861Z,83.30
2017-11-04T13:38:06.202Z,83.30
2017-11-04T13:40:34.161Z,83.10
2017-11-04T13:43:01.709Z,82.90
2017-11-04T13:45:33.361Z,82.80
2017-11-04T13:48:00.913Z,82.70
2017-11-04T13:50:28.497Z,82.50
2017-11-04T13:53:14.665Z,82.40
2017-11-04T13:58:32.288Z,82.00
2017-11-04T14:01:01.922Z,81.80
2017-11-04T14:03:29.477Z,81.80
2017-11-04T14:06:05.639Z,81.70
2017-11-04T14:08:45.290Z,81.50
2017-11-04T14:14:19.853Z,81.20
2017-11-04T14:30:12.869Z,81.60
2017-11-04T14:32:40.422Z,81.80
2017-11-04T14:35:07.964Z,81.90
2017-11-04T14:37:36.353Z,82.10
2017-11-04T14:40:04.671Z,82.00
2017-11-04T14:42:32.221Z,82.00
2017-11-04T14:44:59.877Z,82.10
2017-11-04T14:47:27.525Z,82.00
2017-11-04T14:49:55.065Z,82.00
2017-11-04T14:52:23.404Z,81.70
2017-11-04T14:54:51.120Z,81.60
2017-11-04T14:57:19.460Z,81.60
2017-11-04T14:59:47.002Z,81.60
2017-11-04T15:02:14.578Z,81.60
2017-11-04T15:04:42.119Z,81.50
2017-11-04T15:07:09.865Z,81.50
2017-11-04T15:09:37.395Z,81.50
2017-11-04T15:12:05.705Z,81.40
2017-11-04T15:14:33.283Z,81.40
2017-11-04T15:17:00.890Z,81.50
2017-11-04T15:19:29.194Z,81.20
2017-11-04T15:21:56.952Z,81.20
2017-11-04T15:24:24.504Z,81.10
2017-11-04T15:26:52.751Z,81.00
2017-11-04T15:29:20.290Z,80.90
2017-11-04T15:31:47.964Z,80.90
2017-11-04T15:34:15.557Z,80.90
2017-11-04T15:36:43.207Z,80.90
2017-11-04T15:39:11.221Z,80.80
2017-11-04T15:41:38.778Z,80.80
2017-11-04T15:44:06.319Z,80.70
2017-11-04T15:46:34.118Z,80.70
2017-11-04T15:49:01.678Z,80.80
2017-11-04T15:51:30.015Z,80.70
2017-11-04T15:53:57.722Z,80.70
2017-11-04T15:56:26.869Z,80.70
2017-11-04T15:58:54.409Z,80.80
2017-11-04T16:01:21.960Z,80.80
2017-11-04T16:03:49.544Z,80.90
2017-11-04T16:06:17.092Z,80.90
2017-11-04T16:08:44.680Z,80.90
2017-11-04T16:11:12.308Z,81.00
2017-11-04T16:13:39.866Z,81.10
2017-11-04T16:16:07.418Z,81.10
2017-11-04T16:18:35.002Z,81.10
2017-11-04T16:21:02.661Z,81.10
2017-11-04T16:23:30.193Z,81.20
2017-11-04T16:25:57.726Z,81.20
2017-11-04T16:28:26.069Z,81.20
2017-11-04T16:30:53.673Z,81.20
2017-11-04T16:33:21.985Z,81.30
2017-11-04T16:35:49.593Z,81.30
2017-11-04T16:38:18.061Z,82.10
2017-11-04T16:40:45.597Z,81.50
2017-11-04T16:43:13.133Z,81.70
2017-11-04T16:45:41.907Z,82.00
2017-11-04T16:48:09.440Z,82.30
2017-11-04T16:50:37.107Z,82.50
2017-11-04T16:53:05.430Z,83.10
2017-11-04T16:55:33.084Z,83.10
2017-11-04T16:58:01.053Z,83.30
2017-11-04T17:00:28.640Z,83.50
2017-11-04T17:02:56.183Z,83.60
2017-11-04T17:05:23.725Z,83.70
2017-11-04T17:07:51.309Z,83.90
2017-11-04T17:10:18.887Z,83.90
2017-11-04T17:12:46.444Z,84.20
2017-11-04T17:15:13.985Z,84.30
2017-11-04T17:17:41.556Z,84.40
2017-11-04T17:20:09.283Z,84.50
2017-11-04T17:22:36.828Z,84.50
2017-11-04T17:25:05.150Z,84.90
2017-11-04T17:27:33.036Z,84.90
2017-11-04T17:30:00.592Z,85.00
2017-11-04T17:32:28.167Z,85.10
2017-11-04T17:34:55.705Z,85.10
2017-11-04T17:37:23.353Z,85.20
2017-11-04T17:39:50.888Z,85.20
2017-11-04T17:42:18.637Z,85.50
2017-11-04T17:44:46.936Z,85.90
2017-11-04T17:47:14.616Z,85.80
2017-11-04T17:49:42.165Z,86.00
2017-11-04T17:52:09.696Z,86.10
2017-11-04T17:54:38.033Z,86.40
2017-11-04T17:57:05.700Z,86.40
2017-11-04T17:59:33.665Z,86.50
2017-11-04T18:02:01.209Z,86.50
2017-11-04T18:04:29.512Z,86.50
2017-11-04T18:06:57.088Z,86.50
2017-11-04T18:09:25.461Z,86.60
2017-11-04T18:11:52.996Z,86.60
2017-11-04T18:14:20.572Z,86.60
2017-11-04T18:16:48.160Z,86.50
2017-11-04T18:19:16.520Z,86.50
2017-11-04T18:21:44.058Z,86.50
2017-11-04T18:24:11.594Z,86.50
2017-11-04T18:26:40.108Z,86.50
2017-11-04T18:29:07.648Z,86.50
2017-11-04T18:31:35.177Z,86.50
2017-11-04T18:34:02.757Z,86.70
2017-11-04T18:36:30.345Z,86.50
2017-11-04T18:38:57.885Z,86.60
2017-11-04T18:41:25.529Z,86.70
2017-11-04T18:43:53.069Z,86.70
2017-11-04T18:46:21.644Z,86.70
2017-11-04T18:48:49.944Z,86.80
2017-11-04T18:51:17.486Z,86.70
2017-11-04T18:53:45.851Z,86.90
2017-11-04T18:56:14.232Z,86.90
2017-11-04T18:58:42.618Z,86.90
2017-11-04T19:01:11.072Z,86.90
2017-11-04T19:03:38.600Z,87.00
2017-11-04T19:06:06.136Z,86.90
2017-11-04T19:08:33.709Z,87.10
2017-11-04T19:11:01.448Z,87.10
2017-11-04T19:13:29.792Z,87.20
2017-11-04T19:15:57.336Z,87.20
2017-11-04T19:18:24.941Z,87.20
2017-11-04T19:20:53.240Z,87.30
2017-11-04T19:23:20.778Z,87.30
2017-11-04T19:25:49.955Z,87.30
2017-11-04T19:28:18.717Z,87.40
2017-11-04T19:30:46.249Z,87.40
2017-11-04T19:33:13.782Z,87.40
2017-11-04T19:35:42.120Z,87.60
2017-11-04T19:38:09.697Z,87.50
2017-11-04T19:40:37.433Z,87.40
2017-11-04T19:43:05.036Z,87.60
2017-11-04T19:45:32.573Z,87.60
2017-11-04T19:48:00.106Z,87.70
2017-11-04T19:50:27.736Z,87.60
2017-11-04T19:52:56.036Z,87.60
2017-11-04T19:55:23.588Z,87.60
2017-11-04T19:57:52.709Z,87.70
2017-11-04T20:00:20.249Z,87.70
2017-11-04T20:02:48.149Z,87.70
2017-11-04T20:05:15.696Z,87.80
2017-11-04T20:07:43.285Z,87.80
2017-11-04T20:10:10.861Z,87.80
2017-11-04T20:12:38.432Z,87.80
2017-11-04T20:15:06.792Z,87.80
2017-11-04T20:17:34.333Z,87.80
2017-11-04T20:20:01.990Z,87.80
2017-11-04T20:22:29.573Z,87.80
2017-11-04T20:24:57.119Z,87.90
2017-11-04T20:27:24.770Z,87.90
2017-11-04T20:29:55.301Z,87.80
2017-11-04T20:32:22.844Z,88.00
2017-11-04T20:34:50.387Z,88.00
2017-11-04T20:37:17.966Z,88.00
2017-11-04T20:39:45.541Z,88.00
2017-11-04T20:42:13.085Z,88.10
2017-11-04T20:44:44.490Z,88.20
2017-11-04T20:47:12.800Z,88.30
2017-11-04T20:49:40.332Z,88.30
2017-11-04T20:52:10.094Z,88.20
2017-11-04T20:54:37.633Z,88.30
2017-11-04T20:57:05.717Z,88.30
2017-11-04T20:59:34.020Z,88.30
2017-11-04T21:02:01.564Z,88.20
2017-11-04T21:04:29.141Z,88.30
2017-11-04T21:06:56.712Z,88.30
2017-11-04T21:09:24.240Z,88.30
2017-11-04T21:11:52.577Z,88.50
2017-11-04T21:14:20.116Z,88.60
2017-11-04T21:16:47.689Z,88.60
2017-11-04T21:19:15.258Z,88.60
2017-11-04T21:21:42.801Z,88.60
2017-11-04T21:24:10.382Z,88.60
2017-11-04T21:26:37.924Z,88.60
2017-11-04T21:29:05.481Z,88.70
2017-11-04T21:31:33.114Z,88.70
2017-11-04T21:34:00.698Z,88.70
2017-11-04T21:36:28.227Z,88.70
2017-11-04T21:39:00.638Z,88.70
2017-11-04T21:41:28.168Z,88.80
2017-11-04T21:43:55.743Z,88.70
2017-11-04T21:46:23.921Z,88.80
2017-11-04T21:48:51.496Z,88.80
2017-11-04T21:51:19.048Z,88.80
2017-11-04T21:53:46.629Z,88.80
2017-11-04T21:56:14.160Z,88.80
2017-11-04T21:58:42.115Z,88.80
2017-11-04T22:01:09.644Z,88.90
2017-11-04T22:03:37.952Z,89.00
2017-11-04T22:06:05.538Z,89.00
2017-11-04T22:08:33.065Z,89.00
2017-11-04T22:11:00.600Z,89.00
2017-11-04T22:13:28.932Z,89.10
2017-11-04T22:15:56.896Z,89.10
2017-11-04T22:18:24.442Z,89.10
2017-11-04T22:20:51.988Z,89.10
2017-11-04T22:23:20.818Z,89.20
2017-11-04T22:25:48.349Z,89.20
2017-11-04T22:28:15.950Z,89.20
2017-11-04T22:30:43.481Z,89.30
2017-11-04T22:33:11.007Z,89.30
2017-11-04T22:35:39.418Z,89.40
2017-11-04T22:38:07.007Z,90.00
2017-11-04T22:40:34.537Z,89.40
2017-11-04T22:43:02.113Z,89.40
2017-11-04T22:45:29.641Z,89.40
2017-11-04T22:47:57.640Z,89.40
2017-11-04T22:50:25.185Z,89.50
2017-11-04T22:52:52.715Z,89.50
2017-11-04T22:55:21.047Z,89.50
2017-11-04T22:57:48.581Z,89.60
2017-11-04T23:00:19.855Z,89.60
2017-11-04T23:02:47.398Z,89.60
2017-11-04T23:05:15.365Z,89.60
2017-11-04T23:07:42.891Z,89.70
2017-11-04T23:10:10.429Z,89.70
2017-11-04T23:12:38.771Z,89.90
2017-11-04T23:15:06.344Z,89.90
2017-11-04T23:17:34.058Z,90.30
2017-11-04T23:20:01.609Z,90.00
2017-11-04T23:22:29.913Z,90.00
2017-11-04T23:25:02.109Z,90.00
2017-11-04T23:27:29.643Z,90.00
2017-11-04T23:29:57.212Z,90.10
2017-11-04T23:32:25.177Z,90.10
2017-11-04T23:34:52.716Z,90.10
2017-11-04T23:37:20.270Z,90.10
2017-11-04T23:39:48.477Z,90.20
2017-11-04T23:42:16.010Z,90.20
2017-11-04T23:44:43.936Z,90.30
2017-11-04T23:47:11.527Z,90.40
2017-11-04T23:49:39.821Z,90.50
2017-11-04T23:52:07.352Z,90.50
2017-11-04T23:54:35.885Z,90.60
2017-11-04T23:57:03.412Z,90.60
2017-11-04T23:59:30.990Z,90.70
